createdAt,value
2022-08-16T00:00:26.430Z,5.00
2022-08-16T00:02:54.251Z,4.43
2022-08-16T00:05:23.346Z,4.70
2022-08-16T00:07:56.258Z,5.25
2022-08-16T00:10:25.719Z,5.30
2022-08-16T00:12:52.668Z,4.53
2022-08-16T00:15:51.970Z,5.20
2022-08-16T00:18:17.425Z,5.43
2022-08-16T00:20:46.784Z,4.95
2022-08-16T00:23:14.609Z,5.03
2022-08-16T00:26:33.638Z,5.50
2022-08-16T00:28:29.867Z,5.20
2022-08-16T00:30:59.217Z,5.28
2022-08-16T00:33:28.369Z,5.40
2022-08-16T00:35:57.464Z,5.80
2022-08-16T00:38:40.239Z,5.53
2022-08-16T00:41:08.498Z,5.55
2022-08-16T00:43:43.407Z,5.47
2022-08-16T00:46:32.960Z,5.20
2022-08-16T00:49:04.158Z,4.97
2022-08-16T00:51:30.842Z,4.95
2022-08-16T00:53:57.739Z,5.20
2022-08-16T00:56:58.573Z,5.10
2022-08-16T00:59:18.977Z,5.00
2022-08-16T01:01:46.242Z,5.10
2022-08-16T01:04:29.356Z,4.95
2022-08-16T01:07:01.156Z,4.97
2022-08-16T01:09:33.656Z,5.30
2022-08-16T01:12:03.348Z,4.95
2022-08-16T01:14:35.185Z,5.13
2022-08-16T01:17:03.687Z,4.82
2022-08-16T01:19:41.098Z,5.35
2022-08-16T01:22:58.861Z,5.13
2022-08-16T01:25:34.588Z,6.05
2022-08-16T01:28:09.957Z,5.68
2022-08-16T01:30:53.529Z,6.30
2022-08-16T01:33:22.403Z,6.20
2022-08-16T01:36:01.855Z,5.93
2022-08-16T01:38:49.278Z,5.47
2022-08-16T01:41:30.771Z,5.22
2022-08-16T01:44:01.093Z,5.10
2022-08-16T01:46:39.074Z,5.28
2022-08-16T01:49:25.446Z,5.72
2022-08-16T01:52:27.992Z,5.90
2022-08-16T01:55:22.855Z,6.78
2022-08-16T01:57:53.309Z,6.13
2022-08-16T02:00:29.467Z,5.90
2022-08-16T02:03:00.282Z,5.57
2022-08-16T02:05:30.354Z,5.10
2022-08-16T02:07:59.584Z,5.28
2022-08-16T02:10:27.239Z,5.60
2022-08-16T02:12:56.070Z,5.22
2022-08-16T02:15:35.402Z,5.63
2022-08-16T02:18:08.211Z,5.88
2022-08-16T02:20:42.612Z,6.40
2022-08-16T02:23:13.110Z,7.28
2022-08-16T02:25:52.280Z,6.40
2022-08-16T02:28:23.583Z,5.90
2022-08-16T02:30:52.026Z,7.53
2022-08-16T02:33:24.627Z,7.32
2022-08-16T02:36:14.169Z,6.47
2022-08-16T02:38:41.306Z,6.70
2022-08-16T02:41:09.980Z,6.20
2022-08-16T02:43:39.029Z,6.60
2022-08-16T02:46:08.403Z,8.02
2022-08-16T02:48:38.604Z,8.63
2022-08-16T02:51:11.444Z,9.30
2022-08-16T02:53:43.952Z,9.10
2022-08-16T02:56:14.996Z,8.68
2022-08-16T02:58:44.198Z,7.20
2022-08-16T03:01:24.683Z,5.90
2022-08-16T03:04:40.746Z,5.40
2022-08-16T03:06:56.162Z,6.50
2022-08-16T03:09:36.690Z,6.05
2022-08-16T03:12:05.287Z,7.55
2022-08-16T03:14:33.318Z,7.55
2022-08-16T03:17:02.070Z,9.95
2022-08-16T03:19:48.608Z,8.50
2022-08-16T03:22:29.081Z,9.35
2022-08-16T03:25:07.307Z,9.10
2022-08-16T03:27:35.884Z,10.25
2022-08-16T03:30:16.444Z,9.57
2022-08-16T03:32:51.823Z,7.53
2022-08-16T03:35:23.448Z,7.40
2022-08-16T03:38:02.830Z,7.20
2022-08-16T03:40:35.935Z,8.60
2022-08-16T03:43:20.834Z,7.78
2022-08-16T03:45:53.385Z,8.30
2022-08-16T03:48:36.766Z,8.45
2022-08-16T03:51:12.895Z,8.80
2022-08-16T03:53:57.679Z,8.60
2022-08-16T03:56:30.421Z,8.25
2022-08-16T03:58:59.128Z,8.40
2022-08-16T04:01:30.012Z,9.20
2022-08-16T04:03:57.433Z,8.32
2022-08-16T04:06:24.245Z,9.52
2022-08-16T04:08:51.237Z,9.38
2022-08-16T04:11:18.647Z,10.00
2022-08-16T04:14:00.469Z,9.75
2022-08-16T04:16:38.559Z,9.85
2022-08-16T04:19:31.820Z,9.75
2022-08-16T04:22:00.859Z,9.35
2022-08-16T04:24:31.453Z,9.43
2022-08-16T04:26:58.786Z,9.73
2022-08-16T04:29:27.847Z,9.30
2022-08-16T04:32:10.643Z,8.88
2022-08-16T04:34:41.374Z,8.48
2022-08-16T04:37:09.457Z,9.50
2022-08-16T04:39:47.268Z,8.68
2022-08-16T04:42:24.083Z,9.68
2022-08-16T04:44:56.051Z,9.00
2022-08-16T04:47:31.564Z,8.25
2022-08-16T04:50:01.993Z,9.18
2022-08-16T04:52:33.990Z,8.95
2022-08-16T04:55:09.644Z,8.93
2022-08-16T04:57:41.467Z,8.75
2022-08-16T05:00:32.591Z,9.77
2022-08-16T05:03:11.079Z,9.77
2022-08-16T05:05:59.086Z,9.30
2022-08-16T05:08:31.360Z,9.88
2022-08-16T05:11:09.618Z,9.70
2022-08-16T05:13:42.355Z,10.05
2022-08-16T05:16:21.785Z,10.35
2022-08-16T05:18:56.855Z,9.80
2022-08-16T05:21:38.588Z,10.13
2022-08-16T05:24:09.023Z,10.20
2022-08-16T05:26:43.311Z,10.18
2022-08-16T05:29:16.747Z,10.32
2022-08-16T05:31:58.613Z,10.50
2022-08-16T05:34:25.283Z,10.55
2022-08-16T05:36:57.305Z,10.88
2022-08-16T05:39:32.674Z,11.15
2022-08-16T05:42:00.888Z,11.55
2022-08-16T05:44:28.263Z,11.05
2022-08-16T05:47:00.728Z,10.55
2022-08-16T05:49:39.423Z,11.15
2022-08-16T05:52:13.893Z,11.10
2022-08-16T05:54:47.504Z,10.82
2022-08-16T05:57:18.122Z,10.70
2022-08-16T05:59:50.438Z,10.52
2022-08-16T06:02:33.558Z,11.35
2022-08-16T06:05:02.445Z,12.80
2022-08-16T06:07:32.157Z,13.13
2022-08-16T06:10:09.789Z,11.63
2022-08-16T06:12:37.733Z,12.18
2022-08-16T06:15:17.780Z,12.40
2022-08-16T06:17:46.056Z,12.93
2022-08-16T06:20:24.072Z,12.88
2022-08-16T06:22:58.595Z,12.98
2022-08-16T06:25:36.081Z,12.57
2022-08-16T06:28:08.908Z,12.48
2022-08-16T06:30:43.822Z,12.60
2022-08-16T06:33:22.674Z,14.27
2022-08-16T06:35:54.933Z,12.98
2022-08-16T06:38:32.198Z,12.20
2022-08-16T06:41:14.078Z,13.00
2022-08-16T06:43:42.507Z,12.15
2022-08-16T06:46:31.606Z,12.93
2022-08-16T06:49:02.187Z,12.32
2022-08-16T06:51:46.164Z,12.55
2022-08-16T06:54:16.452Z,13.68
2022-08-16T06:56:43.419Z,13.48
2022-08-16T06:59:17.270Z,11.63
2022-08-16T07:01:54.474Z,12.20
2022-08-16T07:04:33.401Z,12.32
2022-08-16T07:07:14.482Z,11.80
2022-08-16T07:09:42.135Z,11.88
2022-08-16T07:12:09.440Z,11.05
2022-08-16T07:14:40.629Z,10.30
2022-08-16T07:17:12.711Z,10.88
2022-08-16T07:20:02.963Z,10.60
2022-08-16T07:22:52.983Z,11.15
2022-08-16T07:25:40.297Z,10.57
2022-08-16T07:28:11.818Z,11.00
2022-08-16T07:30:46.610Z,10.35
2022-08-16T07:33:52.088Z,10.00
2022-08-16T07:36:23.111Z,10.10
2022-08-16T07:38:52.289Z,10.15
2022-08-16T07:41:19.700Z,10.05
2022-08-16T07:43:51.270Z,9.55
2022-08-16T07:46:38.064Z,9.45
2022-08-16T07:49:11.717Z,8.95
2022-08-16T07:51:40.575Z,8.07
2022-08-16T07:54:10.897Z,8.57
2022-08-16T07:56:44.756Z,7.45
2022-08-16T07:59:16.389Z,7.82
2022-08-16T08:01:43.389Z,7.03
2022-08-16T08:04:13.161Z,6.95
2022-08-16T08:06:42.167Z,5.82
2022-08-16T08:09:14.682Z,6.35
2022-08-16T08:12:01.189Z,6.70
2022-08-16T08:14:39.966Z,6.18
2022-08-16T08:17:08.564Z,5.88
2022-08-16T08:19:35.848Z,5.95
2022-08-16T08:22:09.827Z,6.13
2022-08-16T08:24:53.422Z,5.00
2022-08-16T08:27:26.328Z,5.20
2022-08-16T08:30:50.049Z,4.63
2022-08-16T08:32:48.970Z,4.80
2022-08-16T08:35:30.737Z,5.07
2022-08-16T08:37:58.925Z,5.03
2022-08-16T08:40:29.326Z,4.70
2022-08-16T08:43:00.302Z,4.22
2022-08-16T08:45:46.964Z,4.03
2022-08-16T08:48:33.423Z,4.30
2022-08-16T08:51:09.104Z,4.75
2022-08-16T08:53:46.547Z,4.60
2022-08-16T08:56:26.912Z,4.60
2022-08-16T08:59:13.183Z,4.13
2022-08-16T09:01:58.147Z,4.05
2022-08-16T09:04:32.797Z,3.72
2022-08-16T09:07:03.908Z,3.17
2022-08-16T09:09:33.820Z,3.53
2022-08-16T09:12:06.215Z,3.70
2022-08-16T09:14:54.951Z,3.85
2022-08-16T09:17:48.764Z,4.03
2022-08-16T09:20:17.074Z,3.72
2022-08-16T09:22:51.476Z,3.58
2022-08-16T09:25:26.442Z,3.60
2022-08-16T09:28:02.170Z,3.63
2022-08-16T09:30:42.969Z,3.53
2022-08-16T09:33:11.296Z,3.63
2022-08-16T09:35:39.069Z,3.60
2022-08-16T09:38:09.941Z,3.20
2022-08-16T09:40:41.784Z,3.42
2022-08-16T09:43:46.444Z,3.47
2022-08-16T09:46:48.816Z,3.17
2022-08-16T09:48:55.903Z,3.17
2022-08-16T09:51:26.330Z,3.00
2022-08-16T09:54:04.503Z,3.20
2022-08-16T09:56:34.680Z,3.20
2022-08-16T09:59:07.235Z,2.90
2022-08-16T10:01:43.621Z,2.88
2022-08-16T10:04:30.900Z,2.95
2022-08-16T10:07:03.033Z,3.00
2022-08-16T10:09:53.427Z,3.05
2022-08-16T10:12:42.492Z,3.13
2022-08-16T10:15:16.998Z,3.13
2022-08-16T10:18:00.024Z,2.95
2022-08-16T10:20:31.568Z,2.90
2022-08-16T10:23:03.572Z,3.13
2022-08-16T10:27:19.780Z,2.65
2022-08-16T10:28:29.027Z,3.10
2022-08-16T10:30:58.882Z,2.80
2022-08-16T10:33:27.269Z,2.50
2022-08-16T10:36:02.633Z,2.80
2022-08-16T10:38:30.201Z,2.88
2022-08-16T10:41:00.508Z,2.67
2022-08-16T10:43:27.629Z,2.63
2022-08-16T10:46:00.692Z,2.78
2022-08-16T10:48:28.859Z,3.08
2022-08-16T10:51:00.517Z,2.85
2022-08-16T10:53:33.079Z,3.10
2022-08-16T10:56:02.468Z,3.00
2022-08-16T10:58:34.406Z,2.75
2022-08-16T11:01:40.114Z,2.70
2022-08-16T11:03:59.544Z,2.70
2022-08-16T11:06:28.789Z,2.40
2022-08-16T11:14:30.293Z,2.55
2022-08-16T11:17:09.318Z,2.40
2022-08-16T11:20:00.549Z,2.13
2022-08-16T11:22:47.700Z,2.60
2022-08-16T11:25:59.426Z,2.35
2022-08-16T11:28:01.318Z,2.40
2022-08-16T11:30:38.618Z,2.17
2022-08-16T11:33:07.353Z,2.20
2022-08-16T11:38:51.383Z,2.10
2022-08-16T11:41:10.135Z,2.30
2022-08-16T11:43:40.442Z,2.45
2022-08-16T11:46:44.141Z,2.58
2022-08-16T11:49:03.956Z,2.47
2022-08-16T11:51:30.580Z,2.55
2022-08-16T11:53:57.396Z,2.22
2022-08-16T11:56:39.867Z,2.50
2022-08-16T11:59:13.677Z,2.35
2022-08-16T12:01:44.624Z,2.20
2022-08-16T12:04:23.058Z,2.40
2022-08-16T12:06:53.579Z,2.40
2022-08-16T12:09:21.274Z,2.65
2022-08-16T12:11:52.801Z,2.38
2022-08-16T12:14:22.781Z,2.28
2022-08-16T12:16:55.754Z,2.70
2022-08-16T12:19:35.334Z,2.10
2022-08-16T12:22:19.604Z,2.40
2022-08-16T12:24:52.059Z,2.33
2022-08-16T12:27:25.027Z,2.30
2022-08-16T12:29:52.793Z,2.10
2022-08-16T12:32:38.452Z,2.10
2022-08-16T12:35:12.045Z,2.20
2022-08-16T12:37:39.697Z,2.00
2022-08-16T12:40:23.110Z,2.63
2022-08-16T12:42:54.887Z,2.20
2022-08-16T12:45:28.360Z,2.22
2022-08-16T12:48:34.519Z,2.40
2022-08-16T12:51:01.066Z,2.20
2022-08-16T12:53:31.874Z,2.10
2022-08-16T12:55:59.560Z,2.25
2022-08-16T12:58:49.350Z,2.08
2022-08-16T13:01:26.681Z,2.05
2022-08-16T13:04:11.969Z,2.10
2022-08-16T13:06:43.027Z,2.22
2022-08-16T13:09:26.748Z,1.80
2022-08-16T13:12:07.202Z,2.10
2022-08-16T13:14:39.312Z,1.88
2022-08-16T13:17:14.208Z,2.10
2022-08-16T13:20:07.855Z,1.98
2022-08-16T13:22:47.114Z,1.95
2022-08-16T13:25:20.904Z,2.03
2022-08-16T13:28:02.343Z,1.90
2022-08-16T13:30:41.585Z,2.15
2022-08-16T13:33:18.193Z,2.00
2022-08-16T13:35:55.966Z,2.20
2022-08-16T13:38:31.545Z,1.90
2022-08-16T13:41:08.875Z,3.55
2022-08-16T13:43:38.302Z,2.00
2022-08-16T13:46:06.615Z,2.00
2022-08-16T13:48:42.579Z,2.28
2022-08-16T13:51:17.583Z,2.28
2022-08-16T13:53:59.312Z,2.50
2022-08-16T13:56:35.970Z,2.40
2022-08-16T13:59:19.396Z,2.03
2022-08-16T14:01:55.607Z,2.20
2022-08-16T14:04:28.951Z,2.00
2022-08-16T14:07:00.885Z,1.90
2022-08-16T14:09:30.209Z,2.10
2022-08-16T14:11:58.415Z,2.03
2022-08-16T14:14:29.837Z,1.77
2022-08-16T14:16:59.328Z,2.00
2022-08-16T14:19:27.059Z,2.10
2022-08-16T14:22:13.552Z,2.17
2022-08-16T14:24:47.350Z,2.08
2022-08-16T14:27:19.515Z,2.30
2022-08-16T14:29:49.939Z,2.20
2022-08-16T14:32:33.623Z,2.10
2022-08-16T14:35:11.386Z,2.28
2022-08-16T14:37:39.378Z,2.30
2022-08-16T14:40:12.453Z,2.42
2022-08-16T14:42:40.343Z,2.05
2022-08-16T14:45:13.524Z,2.20
2022-08-16T14:47:40.633Z,2.20
2022-08-16T14:50:12.830Z,2.45
2022-08-16T14:53:02.059Z,2.30
2022-08-16T14:55:33.277Z,2.30
2022-08-16T14:58:04.919Z,2.30
2022-08-16T15:00:36.588Z,2.33
2022-08-16T15:03:09.582Z,2.10
2022-08-16T15:05:38.647Z,2.40
2022-08-16T15:08:05.927Z,2.10
2022-08-16T15:10:32.658Z,2.20
2022-08-16T15:13:01.279Z,2.08
2022-08-16T15:15:30.365Z,2.20
2022-08-16T15:17:58.951Z,2.25
2022-08-16T15:20:30.762Z,2.00
2022-08-16T15:22:59.546Z,2.15
2022-08-16T15:25:30.395Z,2.33
2022-08-16T15:27:58.543Z,2.30
2022-08-16T15:30:57.711Z,2.17
2022-08-16T15:33:19.873Z,2.17
2022-08-16T15:35:50.009Z,2.10
2022-08-16T15:38:56.980Z,2.40
2022-08-16T15:41:04.149Z,2.00
2022-08-16T15:43:38.862Z,1.95
2022-08-16T15:46:54.677Z,1.90
2022-08-16T15:49:10.364Z,2.20
2022-08-16T15:51:39.279Z,2.38
2022-08-16T15:54:29.154Z,2.38
2022-08-16T15:56:55.168Z,2.28
2022-08-16T15:59:24.620Z,2.40
2022-08-16T16:01:55.901Z,2.50
2022-08-16T16:04:25.690Z,2.20
2022-08-16T16:06:55.162Z,2.20
2022-08-16T16:09:34.771Z,2.10
2022-08-16T16:12:41.486Z,2.03
2022-08-16T16:14:52.902Z,2.22
2022-08-16T16:17:19.479Z,2.30
2022-08-16T16:19:53.659Z,2.00
2022-08-16T16:22:21.688Z,2.20
2022-08-16T16:24:50.021Z,2.20
2022-08-16T16:27:16.875Z,1.88
2022-08-16T16:29:46.342Z,1.98
2022-08-16T16:32:34.341Z,2.30
2022-08-16T16:35:02.461Z,1.77
2022-08-16T16:37:31.052Z,2.08
2022-08-16T16:39:58.775Z,1.80
2022-08-16T16:42:29.998Z,1.98
2022-08-16T16:45:01.622Z,2.05
2022-08-16T16:47:40.565Z,2.00
2022-08-16T16:50:09.309Z,2.00
2022-08-16T16:52:44.055Z,1.70
2022-08-16T16:55:14.730Z,1.65
2022-08-16T16:58:00.744Z,1.80
2022-08-16T17:00:37.704Z,1.83
2022-08-16T17:03:06.350Z,2.15
2022-08-16T17:05:56.891Z,2.25
2022-08-16T17:08:27.648Z,1.90
2022-08-16T17:10:55.981Z,2.20
2022-08-16T17:13:24.483Z,2.13
2022-08-16T17:15:53.084Z,2.00
2022-08-16T17:21:09.031Z,2.20
2022-08-16T17:23:58.582Z,2.00
2022-08-16T17:26:30.151Z,1.92
2022-08-16T17:29:02.766Z,2.05
2022-08-16T17:31:41.003Z,2.28
2022-08-16T17:34:29.040Z,1.95
2022-08-16T17:37:05.130Z,2.22
2022-08-16T17:39:28.770Z,2.13
2022-08-16T17:39:58.187Z,1.85
2022-08-16T17:42:25.253Z,1.95
2022-08-16T17:44:52.150Z,1.98
2022-08-16T17:47:18.781Z,2.10
2022-08-16T17:49:45.389Z,2.00
2022-08-16T17:52:12.745Z,2.30
2022-08-16T17:54:39.467Z,1.73
2022-08-16T17:57:06.659Z,2.13
2022-08-16T17:59:36.899Z,2.13
2022-08-16T18:02:43.486Z,2.00
2022-08-16T18:05:03.236Z,1.90
2022-08-16T18:07:29.805Z,2.00
2022-08-16T18:09:56.403Z,1.90
2022-08-16T18:12:44.994Z,1.80
2022-08-16T18:15:14.601Z,2.10
2022-08-16T18:17:41.899Z,2.05
2022-08-16T18:20:32.331Z,2.17
2022-08-16T18:23:15.051Z,1.83
2022-08-16T18:25:46.868Z,1.90
2022-08-16T18:28:14.306Z,1.90
2022-08-16T18:30:41.129Z,1.92
2022-08-16T18:33:07.987Z,2.20
2022-08-16T18:35:35.165Z,2.20
2022-08-16T18:38:01.864Z,2.00
2022-08-16T18:40:28.813Z,2.00
2022-08-16T18:43:00.271Z,1.98
2022-08-16T18:45:35.106Z,2.03
2022-08-16T18:48:04.570Z,2.10
2022-08-16T18:51:03.167Z,2.00
2022-08-16T18:53:21.104Z,2.15
2022-08-16T18:55:48.934Z,2.28
2022-08-16T18:58:26.366Z,2.22
2022-08-16T19:00:56.550Z,1.95
2022-08-16T19:03:26.366Z,2.10
2022-08-16T19:06:02.757Z,2.30
2022-08-16T19:08:30.751Z,2.40
2022-08-16T19:10:57.499Z,2.28
2022-08-16T19:13:27.767Z,2.20
2022-08-16T19:15:58.324Z,2.38
2022-08-16T19:18:25.775Z,2.40
2022-08-16T19:20:55.430Z,2.70
2022-08-16T19:23:24.877Z,2.50
2022-08-16T19:25:55.777Z,2.58
2022-08-16T19:28:51.204Z,2.85
2022-08-16T19:31:22.412Z,2.30
2022-08-16T19:33:54.819Z,2.67
2022-08-16T19:36:31.038Z,2.67
2022-08-16T19:39:05.415Z,2.40
2022-08-16T19:41:34.199Z,2.45
2022-08-16T19:44:00.803Z,2.55
2022-08-16T19:46:27.683Z,2.42
2022-08-16T19:48:54.274Z,2.70
2022-08-16T19:51:20.867Z,2.72
2022-08-16T19:53:47.472Z,3.00
2022-08-16T19:56:14.095Z,2.38
2022-08-16T19:58:56.076Z,2.70
2022-08-16T20:01:24.942Z,2.60
2022-08-16T20:03:51.943Z,2.78
2022-08-16T20:06:38.429Z,3.10
2022-08-16T20:09:05.593Z,2.80
2022-08-16T20:11:32.310Z,2.55
2022-08-16T20:13:59.405Z,2.63
2022-08-16T20:16:26.168Z,2.90
2022-08-16T20:18:52.827Z,2.97
2022-08-16T20:21:19.542Z,2.95
2022-08-16T20:23:46.325Z,3.00
2022-08-16T20:26:13.228Z,3.10
2022-08-16T20:28:53.126Z,3.15
2022-08-16T20:31:25.074Z,3.70
2022-08-16T20:33:53.161Z,5.65
2022-08-16T20:36:19.833Z,5.03
2022-08-16T20:38:47.659Z,3.55
2022-08-16T20:41:16.325Z,3.35
2022-08-16T20:43:43.538Z,3.72
2022-08-16T20:46:12.291Z,5.65
2022-08-16T20:48:38.915Z,8.45
2022-08-16T20:51:06.835Z,8.95
2022-08-16T20:53:33.996Z,6.32
2022-08-16T20:56:00.740Z,5.45
2022-08-16T20:58:27.337Z,4.60
2022-08-16T21:00:53.980Z,5.68
2022-08-16T21:03:20.701Z,5.22
2022-08-16T21:05:47.330Z,6.60
2022-08-16T21:08:26.943Z,4.28
2022-08-16T21:11:04.281Z,4.55
2022-08-16T21:13:32.712Z,4.57
2022-08-16T21:16:01.904Z,4.72
2022-08-16T21:18:29.199Z,4.38
2022-08-16T21:20:56.176Z,4.20
2022-08-16T21:23:22.829Z,4.68
2022-08-16T21:25:58.283Z,4.40
2022-08-16T21:28:40.526Z,4.15
2022-08-16T21:31:15.324Z,3.85
2022-08-16T21:33:43.337Z,4.28
2022-08-16T21:36:11.478Z,4.22
2022-08-16T21:38:38.845Z,4.30
2022-08-16T21:41:07.224Z,4.18
2022-08-16T21:43:34.237Z,4.65
2022-08-16T21:46:02.505Z,4.53
2022-08-16T21:48:33.658Z,4.25
2022-08-16T21:51:07.428Z,4.40
2022-08-16T21:53:39.650Z,4.15
2022-08-16T21:56:06.693Z,4.40
2022-08-16T21:58:37.960Z,4.65
2022-08-16T22:01:05.051Z,4.57
2022-08-16T22:03:35.373Z,4.55
2022-08-16T22:06:12.914Z,4.72
2022-08-16T22:08:50.557Z,4.88
2022-08-16T22:11:22.041Z,4.82
2022-08-16T22:13:57.898Z,5.15
2022-08-16T22:16:51.296Z,5.13
2022-08-16T22:19:36.637Z,4.60
2022-08-16T22:22:03.572Z,4.47
2022-08-16T22:24:30.205Z,4.80
2022-08-16T22:26:56.962Z,5.00
2022-08-16T22:29:23.610Z,5.35
2022-08-16T22:31:50.237Z,5.13
2022-08-16T22:34:17.033Z,4.88
2022-08-16T22:36:44.038Z,5.03
2022-08-16T22:39:12.922Z,5.20
2022-08-16T22:41:42.298Z,5.72
2022-08-16T22:44:09.416Z,5.57
2022-08-16T22:46:36.806Z,5.55
2022-08-16T22:49:05.840Z,5.68
2022-08-16T22:51:33.324Z,5.60
2022-08-16T22:54:00.203Z,5.45
2022-08-16T22:56:46.851Z,5.07
2022-08-16T22:59:15.331Z,5.22
2022-08-16T23:01:42.162Z,5.32
2022-08-16T23:04:08.796Z,5.95
2022-08-16T23:06:35.391Z,5.38
2022-08-16T23:09:02.195Z,5.32
2022-08-16T23:11:28.845Z,5.78
2022-08-16T23:13:56.653Z,5.50
2022-08-16T23:16:33.384Z,5.40
2022-08-16T23:19:07.477Z,5.75
2022-08-16T23:21:37.115Z,5.55
2022-08-16T23:24:04.336Z,5.03
2022-08-16T23:26:46.487Z,4.82
2022-08-16T23:29:24.159Z,4.72
2022-08-16T23:31:58.269Z,4.63
2022-08-16T23:34:27.094Z,5.20
2022-08-16T23:36:54.100Z,5.45
2022-08-16T23:39:20.759Z,5.40
2022-08-16T23:41:47.453Z,5.47
2022-08-16T23:44:45.530Z,5.32
2022-08-16T23:47:00.764Z,5.38
2022-08-16T23:50:01.304Z,5.00
2022-08-16T23:52:14.457Z,5.22
2022-08-16T23:54:41.201Z,5.05
2022-08-16T23:57:08.433Z,5.25
2022-08-16T23:59:48.660Z,5.50
